Summerland Key, FL (33042)

7:24 AM EDT on August 25, 2016 (GMT -0400)
Breezeswept Estates - Bird Lake - Ramrod | | Change Station

Elev 25 ft 24.65 °N, 81.41 °W | Updated 19 seconds ago

Mostly Cloudy
Mostly Cloudy
81.3 °F
Feels Like 87 °F
N
2.9
Wind Variable Wind from ESE
Gusts 9.2 mph

Today
High -- | Low -- °F
--% Chance of Precip.
Yesterday
High -- | Low -- °F
Precip. -- in
Pressure 29.94 in
Visibility 10.0 miles
Clouds Scattered Clouds 2000 ft
Mostly Cloudy 20000 ft
Heat Index 87 °F
Dew Point 75 °F
Humidity 80%
Rainfall 0.09 in
Snow Depth Not available.
7:04 AM 7:50 PM
Waning Gibbous, 46% visible
METAR KNQX 251053Z 03005KT 10SM SCT020 BKN200 28/26 A2994 RMK AO2 SLP136 T2 SET T02830261 $
Pressure 29.94 in
Visibility 10.0 miles
Clouds Scattered Clouds 2000 ft
Mostly Cloudy 20000 ft
Heat Index 87 °F
Dew Point 75 °F
Humidity 80%
Rainfall 0.09 in
Snow Depth Not available.
7:04 AM 7:50 PM
Waning Gibbous, 46% visible
METAR KNQX 251053Z 03005KT 10SM SCT020 BKN200 28/26 A2994 RMK AO2 SLP136 T2 SET T02830261 $

10-Day Weather Forecast

Almanac

Astronomy

Aug. 25, 2016 Rise Set
Actual Time
Civil Twilight
Nautical Twilight
Astronomical Twilight
Moon
Length of Visible Light
Length of Day
Tomorrow will be .
, % of the Moon is Illuminated

Today's Extremes

State Highs State Lows

Community

WunderPhotos

Upload Photos

1,934,822 photos uploaded!

WunderBlog® & News

Nearby

Air Quality

  Air Quality AQ Index Pollutant
Not available.

Snow Depth

Station Depth Elevation

Earthquake Activity

City Distance Mag. Time & Date
Minimum magnitude displayed is 2.5.

Coastal Water Temperatures

Place Temperature

Stations

Nearby Weather Stations

Station Location Temp. Windchill Dew Point Humidity Wind Precip. Elev Updated Type
                   

Watches & Warnings

There are currently no watches in effect.